sensor_id;sensor_type;location;lat;lon;timestamp;pressure;altitude;pressure_sealevel;temperature;humidity
71109;BME280;59614;51.012;-1.648;2023-04-19T00:00:27;101618.13;;;7.03;88.36
71109;BME280;59614;51.012;-1.648;2023-04-19T00:02:53;101613.56;;;6.92;89.15
71109;BME280;59614;51.012;-1.648;2023-04-19T00:05:19;101610.03;;;6.90;89.44
71109;BME280;59614;51.012;-1.648;2023-04-19T00:07:46;101610.22;;;7.01;89.43
71109;BME280;59614;51.012;-1.648;2023-04-19T00:10:12;101612.78;;;6.97;89.44
71109;BME280;59614;51.012;-1.648;2023-04-19T00:12:37;101612.78;;;6.98;89.63
71109;BME280;59614;51.012;-1.648;2023-04-19T00:15:04;101605.63;;;6.89;90.58
71109;BME280;59614;51.012;-1.648;2023-04-19T00:17:29;101604.06;;;7.01;90.35
71109;BME280;59614;51.012;-1.648;2023-04-19T00:19:55;101598.81;;;6.99;90.22
71109;BME280;59614;51.012;-1.648;2023-04-19T00:22:21;101600.53;;;6.97;90.43
71109;BME280;59614;51.012;-1.648;2023-04-19T00:24:46;101603.91;;;6.90;90.48
71109;BME280;59614;51.012;-1.648;2023-04-19T00:27:11;101593.25;;;6.82;91.36
71109;BME280;59614;51.012;-1.648;2023-04-19T00:29:37;101593.50;;;6.94;92.03
71109;BME280;59614;51.012;-1.648;2023-04-19T00:32:02;101592.72;;;7.00;91.65
71109;BME280;59614;51.012;-1.648;2023-04-19T00:34:30;101589.09;;;6.93;92.47
71109;BME280;59614;51.012;-1.648;2023-04-19T00:36:55;101588.19;;;6.91;92.99
71109;BME280;59614;51.012;-1.648;2023-04-19T00:39:21;101588.13;;;6.88;93.79
71109;BME280;59614;51.012;-1.648;2023-04-19T00:41:46;101588.31;;;7.01;93.53
71109;BME280;59614;51.012;-1.648;2023-04-19T00:44:12;101576.19;;;7.06;93.16
71109;BME280;59614;51.012;-1.648;2023-04-19T00:46:37;101579.53;;;6.99;95.10
71109;BME280;59614;51.012;-1.648;2023-04-19T00:49:03;101572.72;;;7.08;95.11
71109;BME280;59614;51.012;-1.648;2023-04-19T00:51:29;101575.53;;;7.19;94.77
71109;BME280;59614;51.012;-1.648;2023-04-19T00:53:55;101571.00;;;7.09;95.43
71109;BME280;59614;51.012;-1.648;2023-04-19T00:56:21;101565.75;;;7.12;95.86
71109;BME280;59614;51.012;-1.648;2023-04-19T00:58:48;101564.16;;;7.20;95.87
71109;BME280;59614;51.012;-1.648;2023-04-19T01:01:13;101564.25;;;7.25;96.30
71109;BME280;59614;51.012;-1.648;2023-04-19T01:03:39;101562.47;;;7.24;95.99
71109;BME280;59614;51.012;-1.648;2023-04-19T01:06:05;101551.91;;;7.22;95.94
71109;BME280;59614;51.012;-1.648;2023-04-19T01:08:31;101559.78;;;7.22;96.42
71109;BME280;59614;51.012;-1.648;2023-04-19T01:10:56;101551.09;;;7.25;96.77
71109;BME280;59614;51.012;-1.648;2023-04-19T01:13:22;101558.94;;;7.23;96.75
71109;BME280;59614;51.012;-1.648;2023-04-19T01:15:47;101543.09;;;7.17;97.08
71109;BME280;59614;51.012;-1.648;2023-04-19T01:18:13;101537.84;;;7.17;97.79
71109;BME280;59614;51.012;-1.648;2023-04-19T01:20:39;101544.91;;;7.21;97.92
71109;BME280;59614;51.012;-1.648;2023-04-19T01:23:04;101536.22;;;7.24;98.29
71109;BME280;59614;51.012;-1.648;2023-04-19T01:25:30;101534.63;;;7.35;97.95
71109;BME280;59614;51.012;-1.648;2023-04-19T01:27:55;101538.06;;;7.33;98.46
71109;BME280;59614;51.012;-1.648;2023-04-19T01:30:21;101535.44;;;7.31;99.17
71109;BME280;59614;51.012;-1.648;2023-04-19T01:32:46;101532.88;;;7.36;99.14
71109;BME280;59614;51.012;-1.648;2023-04-19T01:35:11;101537.34;;;7.41;98.55
71109;BME280;59614;51.012;-1.648;2023-04-19T01:37:37;101523.50;;;7.55;98.21
71109;BME280;59614;51.012;-1.648;2023-04-19T01:40:03;101520.03;;;7.56;98.89
71109;BME280;59614;51.012;-1.648;2023-04-19T01:42:29;101520.09;;;7.61;98.99
71109;BME280;59614;51.012;-1.648;2023-04-19T01:44:55;101517.41;;;7.56;99.34
71109;BME280;59614;51.012;-1.648;2023-04-19T01:47:22;101516.50;;;7.54;99.48
71109;BME280;59614;51.012;-1.648;2023-04-19T01:49:49;101521.00;;;7.66;99.67
71109;BME280;59614;51.012;-1.648;2023-04-19T01:52:14;101520.13;;;7.64;99.35
71109;BME280;59614;51.012;-1.648;2023-04-19T01:54:39;101517.59;;;7.71;99.56
71109;BME280;59614;51.012;-1.648;2023-04-19T01:57:05;101509.69;;;7.68;99.39
71109;BME280;59614;51.012;-1.648;2023-04-19T01:59:30;101509.56;;;7.59;100.00
71109;BME280;59614;51.012;-1.648;2023-04-19T02:01:56;101503.47;;;7.63;100.00
71109;BME280;59614;51.012;-1.648;2023-04-19T02:04:21;101504.31;;;7.59;100.00
71109;BME280;59614;51.012;-1.648;2023-04-19T02:06:47;101492.91;;;7.58;100.00
71109;BME280;59614;51.012;-1.648;2023-04-19T02:09:12;101496.38;;;7.57;100.00
71109;BME280;59614;51.012;-1.648;2023-04-19T02:11:37;101492.97;;;7.62;100.00
71109;BME280;59614;51.012;-1.648;2023-04-19T02:14:03;101496.56;;;7.70;100.00
71109;BME280;59614;51.012;-1.648;2023-04-19T02:16:28;101501.75;;;7.67;100.00
71109;BME280;59614;51.012;-1.648;2023-04-19T02:18:54;101500.03;;;7.69;100.00
71109;BME280;59614;51.012;-1.648;2023-04-19T02:21:19;101495.75;;;7.77;100.00
71109;BME280;59614;51.012;-1.648;2023-04-19T02:23:45;101492.31;;;7.81;100.00
71109;BME280;59614;51.012;-1.648;2023-04-19T02:26:10;101490.53;;;7.80;100.00
71109;BME280;59614;51.012;-1.648;2023-04-19T02:28:37;101493.22;;;7.83;100.00
71109;BME280;59614;51.012;-1.648;2023-04-19T02:31:04;101485.38;;;7.86;100.00
71109;BME280;59614;51.012;-1.648;2023-04-19T02:33:30;101489.78;;;7.89;100.00
71109;BME280;59614;51.012;-1.648;2023-04-19T02:35:56;101490.63;;;7.86;100.00
71109;BME280;59614;51.012;-1.648;2023-04-19T02:38:21;101486.25;;;7.85;100.00
71109;BME280;59614;51.012;-1.648;2023-04-19T02:40:46;101491.50;;;7.88;100.00
71109;BME280;59614;51.012;-1.648;2023-04-19T02:43:12;101487.09;;;7.86;100.00
71109;BME280;59614;51.012;-1.648;2023-04-19T02:45:37;101495.84;;;7.83;100.00
71109;BME280;59614;51.012;-1.648;2023-04-19T02:48:03;101483.53;;;7.79;100.00
71109;BME280;59614;51.012;-1.648;2023-04-19T02:50:28;101493.13;;;7.74;100.00
71109;BME280;59614;51.012;-1.648;2023-04-19T02:52:54;101486.94;;;7.72;100.00
71109;BME280;59614;51.012;-1.648;2023-04-19T02:55:19;101491.22;;;7.64;100.00
71109;BME280;59614;51.012;-1.648;2023-04-19T02:57:45;101485.03;;;7.60;100.00
71109;BME280;59614;51.012;-1.648;2023-04-19T03:00:11;101484.13;;;7.56;100.00
71109;BME280;59614;51.012;-1.648;2023-04-19T03:02:36;101488.44;;;7.51;100.00
71109;BME280;59614;51.012;-1.648;2023-04-19T03:05:03;101489.41;;;7.60;100.00
71109;BME280;59614;51.012;-1.648;2023-04-19T03:07:30;101487.59;;;7.55;100.00
71109;BME280;59614;51.012;-1.648;2023-04-19T03:09:56;101481.53;;;7.58;100.00
71109;BME280;59614;51.012;-1.648;2023-04-19T03:12:21;101481.47;;;7.53;100.00
71109;BME280;59614;51.012;-1.648;2023-04-19T03:14:46;101481.47;;;7.53;100.00
71109;BME280;59614;51.012;-1.648;2023-04-19T03:17:13;101474.53;;;7.60;100.00
71109;BME280;59614;51.012;-1.648;2023-04-19T03:19:38;101469.22;;;7.55;100.00
71109;BME280;59614;51.012;-1.648;2023-04-19T03:22:04;101463.88;;;7.49;100.00
71109;BME280;59614;51.012;-1.648;2023-04-19T03:24:30;101461.28;;;7.49;100.00
71109;BME280;59614;51.012;-1.648;2023-04-19T03:26:56;101467.31;;;7.42;100.00
71109;BME280;59614;51.012;-1.648;2023-04-19T03:29:22;101466.47;;;7.46;100.00
71109;BME280;59614;51.012;-1.648;2023-04-19T03:31:48;101466.41;;;7.41;100.00
71109;BME280;59614;51.012;-1.648;2023-04-19T03:34:14;101471.75;;;7.48;100.00
71109;BME280;59614;51.012;-1.648;2023-04-19T03:36:39;101478.69;;;7.44;100.00
71109;BME280;59614;51.012;-1.648;2023-04-19T03:39:05;101473.44;;;7.44;100.00
71109;BME280;59614;51.012;-1.648;2023-04-19T03:41:31;101469.91;;;7.40;100.00
71109;BME280;59614;51.012;-1.648;2023-04-19T03:43:56;101466.47;;;7.46;100.00
71109;BME280;59614;51.012;-1.648;2023-04-19T03:46:23;101460.41;;;7.50;100.00
71109;BME280;59614;51.012;-1.648;2023-04-19T03:48:48;101472.50;;;7.39;100.00
71109;BME280;59614;51.012;-1.648;2023-04-19T03:51:14;101465.44;;;7.33;100.00
71109;BME280;59614;51.012;-1.648;2023-04-19T03:53:40;101463.66;;;7.32;100.00
71109;BME280;59614;51.012;-1.648;2023-04-19T03:56:06;101459.22;;;7.28;100.00
71109;BME280;59614;51.012;-1.648;2023-04-19T03:58:31;101454.91;;;7.32;100.00
71109;BME280;59614;51.012;-1.648;2023-04-19T04:00:57;101461.94;;;7.34;100.00
71109;BME280;59614;51.012;-1.648;2023-04-19T04:03:23;101457.53;;;7.32;100.00
71109;BME280;59614;51.012;-1.648;2023-04-19T04:05:49;101450.53;;;7.31;100.00
71109;BME280;59614;51.012;-1.648;2023-04-19T04:08:14;101458.34;;;7.28;100.00
71109;BME280;59614;51.012;-1.648;2023-04-19T04:10:39;101453.09;;;7.26;100.00
71109;BME280;59614;51.012;-1.648;2023-04-19T04:13:05;101456.56;;;7.25;100.00
71109;BME280;59614;51.012;-1.648;2023-04-19T04:15:30;101451.34;;;7.28;100.00
71109;BME280;59614;51.012;-1.648;2023-04-19T04:17:56;101457.41;;;7.22;100.00
71109;BME280;59614;51.012;-1.648;2023-04-19T04:20:21;101455.59;;;7.18;100.00
71109;BME280;59614;51.012;-1.648;2023-04-19T04:22:46;101461.78;;;7.20;100.00
71109;BME280;59614;51.012;-1.648;2023-04-19T04:25:13;101469.66;;;7.23;100.00
71109;BME280;59614;51.012;-1.648;2023-04-19T04:27:40;101470.44;;;7.16;100.00
71109;BME280;59614;51.012;-1.648;2023-04-19T04:30:07;101473.19;;;7.25;100.00
71109;BME280;59614;51.012;-1.648;2023-04-19T04:32:33;101464.53;;;7.33;100.00
71109;BME280;59614;51.012;-1.648;2023-04-19T04:35:03;101467.13;;;7.30;100.00
71109;BME280;59614;51.012;-1.648;2023-04-19T04:37:33;101461.03;;;7.32;100.00
71109;BME280;59614;51.012;-1.648;2023-04-19T04:40:00;101455.78;;;7.32;100.00
71109;BME280;59614;51.012;-1.648;2023-04-19T04:42:26;101455.78;;;7.31;100.00
71109;BME280;59614;51.012;-1.648;2023-04-19T04:44:52;101448.81;;;7.36;100.00
71109;BME280;59614;51.012;-1.648;2023-04-19T04:47:17;101442.50;;;7.20;100.00
71109;BME280;59614;51.012;-1.648;2023-04-19T04:49:43;101447.03;;;7.32;100.00
71109;BME280;59614;51.012;-1.648;2023-04-19T04:52:08;101444.38;;;7.29;100.00
71109;BME280;59614;51.012;-1.648;2023-04-19T04:54:34;101446.09;;;7.28;100.00
71109;BME280;59614;51.012;-1.648;2023-04-19T04:56:59;101445.28;;;7.31;100.00
71109;BME280;59614;51.012;-1.648;2023-04-19T04:59:25;101444.38;;;7.30;100.00
71109;BME280;59614;51.012;-1.648;2023-04-19T05:01:51;101448.72;;;7.26;100.00
71109;BME280;59614;51.012;-1.648;2023-04-19T05:04:17;101444.25;;;7.22;100.00
71109;BME280;59614;51.012;-1.648;2023-04-19T05:06:43;101457.53;;;7.32;100.00
71109;BME280;59614;51.012;-1.648;2023-04-19T05:09:09;101450.47;;;7.28;100.00
71109;BME280;59614;51.012;-1.648;2023-04-19T05:11:35;101454.19;;;7.42;100.00
71109;BME280;59614;51.012;-1.648;2023-04-19T05:14:01;101449.72;;;7.36;100.00
71109;BME280;59614;51.012;-1.648;2023-04-19T05:16:26;101454.03;;;7.33;100.00
71109;BME280;59614;51.012;-1.648;2023-04-19T05:18:52;101460.13;;;7.30;100.00
71109;BME280;59614;51.012;-1.648;2023-04-19T05:21:17;101457.66;;;7.41;100.00
71109;BME280;59614;51.012;-1.648;2023-04-19T05:23:43;101453.44;;;7.52;100.00
71109;BME280;59614;51.012;-1.648;2023-04-19T05:26:08;101452.56;;;7.55;100.00
71109;BME280;59614;51.012;-1.648;2023-04-19T05:28:40;101461.09;;;7.37;100.00
71109;BME280;59614;51.012;-1.648;2023-04-19T05:31:07;101456.00;;;7.49;100.00
71109;BME280;59614;51.012;-1.648;2023-04-19T05:33:32;101460.25;;;7.38;100.00
71109;BME280;59614;51.012;-1.648;2023-04-19T05:35:58;101453.34;;;7.46;100.00
71109;BME280;59614;51.012;-1.648;2023-04-19T05:38:23;101457.91;;;7.61;100.00
71109;BME280;59614;51.012;-1.648;2023-04-19T05:40:49;101459.53;;;7.51;100.00
71109;BME280;59614;51.012;-1.648;2023-04-19T05:43:14;101465.72;;;7.56;100.00
71109;BME280;59614;51.012;-1.648;2023-04-19T05:45:40;101467.47;;;7.56;100.00
71109;BME280;59614;51.012;-1.648;2023-04-19T05:48:05;101467.53;;;7.62;100.00
71109;BME280;59614;51.012;-1.648;2023-04-19T05:50:31;101472.91;;;7.68;100.00
71109;BME280;59614;51.012;-1.648;2023-04-19T05:52:56;101466.72;;;7.65;100.00
71109;BME280;59614;51.012;-1.648;2023-04-19T05:55:21;101453.59;;;7.66;100.00
71109;BME280;59614;51.012;-1.648;2023-04-19T05:57:47;101456.28;;;7.69;100.00
71109;BME280;59614;51.012;-1.648;2023-04-19T06:00:13;101463.22;;;7.66;100.00
71109;BME280;59614;51.012;-1.648;2023-04-19T06:02:40;101469.25;;;7.60;100.00
71109;BME280;59614;51.012;-1.648;2023-04-19T06:05:06;101458.91;;;7.69;100.00
71109;BME280;59614;51.012;-1.648;2023-04-19T06:07:31;101463.25;;;7.69;100.00
71109;BME280;59614;51.012;-1.648;2023-04-19T06:09:57;101456.38;;;7.80;100.00
71109;BME280;59614;51.012;-1.648;2023-04-19T06:12:22;101463.22;;;7.66;100.00
71109;BME280;59614;51.012;-1.648;2023-04-19T06:14:48;101467.78;;;7.81;100.00
71109;BME280;59614;51.012;-1.648;2023-04-19T06:17:13;101472.25;;;7.89;100.00
71109;BME280;59614;51.012;-1.648;2023-04-19T06:19:41;101473.06;;;7.82;100.00
71109;BME280;59614;51.012;-1.648;2023-04-19T06:22:06;101470.56;;;7.95;100.00
71109;BME280;59614;51.012;-1.648;2023-04-19T06:24:32;101472.25;;;7.89;100.00
71109;BME280;59614;51.012;-1.648;2023-04-19T06:26:57;101475.72;;;7.85;100.00
71109;BME280;59614;51.012;-1.648;2023-04-19T06:29:23;101486.00;;;7.67;100.00
71109;BME280;59614;51.012;-1.648;2023-04-19T06:31:49;101486.25;;;7.88;100.00
71109;BME280;59614;51.012;-1.648;2023-04-19T06:34:15;101485.44;;;7.91;100.00
71109;BME280;59614;51.012;-1.648;2023-04-19T06:36:41;101475.78;;;7.92;100.00
71109;BME280;59614;51.012;-1.648;2023-04-19T06:39:06;101480.28;;;8.00;100.00
71109;BME280;59614;51.012;-1.648;2023-04-19T06:41:32;101474.97;;;7.97;100.00
71109;BME280;59614;51.012;-1.648;2023-04-19T06:43:57;101481.91;;;7.91;100.00
71109;BME280;59614;51.012;-1.648;2023-04-19T06:46:22;101478.59;;;8.09;100.00
71109;BME280;59614;51.012;-1.648;2023-04-19T06:48:48;101471.34;;;7.84;100.00
71109;BME280;59614;51.012;-1.648;2023-04-19T06:51:13;101477.81;;;8.16;100.00
71109;BME280;59614;51.012;-1.648;2023-04-19T06:53:39;101473.28;;;8.02;100.00
71109;BME280;59614;51.012;-1.648;2023-04-19T06:56:05;101479.44;;;8.04;100.00
71109;BME280;59614;51.012;-1.648;2023-04-19T06:58:30;101487.06;;;7.83;100.00
71109;BME280;59614;51.012;-1.648;2023-04-19T07:00:59;101479.22;;;7.86;100.00
71109;BME280;59614;51.012;-1.648;2023-04-19T07:03:25;101486.44;;;8.04;100.00
71109;BME280;59614;51.012;-1.648;2023-04-19T07:05:51;101480.31;;;8.03;100.00
71109;BME280;59614;51.012;-1.648;2023-04-19T07:08:17;101488.31;;;8.14;100.00
71109;BME280;59614;51.012;-1.648;2023-04-19T07:10:42;101489.41;;;8.37;100.00
71109;BME280;59614;51.012;-1.648;2023-04-19T07:13:09;101491.19;;;8.41;100.00
71109;BME280;59614;51.012;-1.648;2023-04-19T07:15:35;101489.44;;;8.38;100.00
71109;BME280;59614;51.012;-1.648;2023-04-19T07:18:00;101501.63;;;8.30;100.00
71109;BME280;59614;51.012;-1.648;2023-04-19T07:20:26;101495.91;;;8.70;100.00
71109;BME280;59614;51.012;-1.648;2023-04-19T07:22:51;101495.06;;;8.78;100.00
71109;BME280;59614;51.012;-1.648;2023-04-19T07:25:16;101496.72;;;8.67;100.00
71109;BME280;59614;51.012;-1.648;2023-04-19T07:27:42;101498.63;;;8.84;100.00
71109;BME280;59614;51.012;-1.648;2023-04-19T07:30:08;101493.59;;;9.11;100.00
71109;BME280;59614;51.012;-1.648;2023-04-19T07:32:33;101494.41;;;9.07;99.34
71109;BME280;59614;51.012;-1.648;2023-04-19T07:34:59;101497.09;;;9.12;99.39
71109;BME280;59614;51.012;-1.648;2023-04-19T07:37:24;101489.16;;;9.07;99.45
71109;BME280;59614;51.012;-1.648;2023-04-19T07:39:49;101508.59;;;9.28;97.66
71109;BME280;59614;51.012;-1.648;2023-04-19T07:42:15;101505.06;;;9.26;97.43
71109;BME280;59614;51.012;-1.648;2023-04-19T07:44:40;101510.38;;;9.27;97.42
71109;BME280;59614;51.012;-1.648;2023-04-19T07:47:06;101504.41;;;9.60;95.77
71109;BME280;59614;51.012;-1.648;2023-04-19T07:49:31;101500.94;;;9.71;95.05
71109;BME280;59614;51.012;-1.648;2023-04-19T07:52:01;101496.50;;;9.61;95.16
71109;BME280;59614;51.012;-1.648;2023-04-19T07:54:27;101503.59;;;9.74;95.49
71109;BME280;59614;51.012;-1.648;2023-04-19T07:56:53;101502.63;;;9.60;94.54
71109;BME280;59614;51.012;-1.648;2023-04-19T07:59:20;101498.38;;;9.92;93.41
71109;BME280;59614;51.012;-1.648;2023-04-19T08:01:45;101497.53;;;9.96;93.84
71109;BME280;59614;51.012;-1.648;2023-04-19T08:04:11;101499.28;;;10.04;92.73
71109;BME280;59614;51.012;-1.648;2023-04-19T08:06:37;101493.16;;;10.15;92.03
71109;BME280;59614;51.012;-1.648;2023-04-19T08:09:03;101496.69;;;10.22;91.41
71109;BME280;59614;51.012;-1.648;2023-04-19T08:11:29;101490.50;;;10.04;92.87
71109;BME280;59614;51.012;-1.648;2023-04-19T08:13:55;101495.84;;;10.24;91.34
71109;BME280;59614;51.012;-1.648;2023-04-19T08:16:20;101490.63;;;10.43;90.94
71109;BME280;59614;51.012;-1.648;2023-04-19T08:18:46;101477.41;;;10.49;91.08
71109;BME280;59614;51.012;-1.648;2023-04-19T08:21:15;101480.94;;;10.54;90.97
71109;BME280;59614;51.012;-1.648;2023-04-19T08:23:41;101492.41;;;10.61;89.20
71109;BME280;59614;51.012;-1.648;2023-04-19T08:26:06;101482.72;;;10.64;88.80
71109;BME280;59614;51.012;-1.648;2023-04-19T08:28:32;101487.13;;;10.73;88.57
71109;BME280;59614;51.012;-1.648;2023-04-19T08:30:58;101494.16;;;10.80;88.53
71109;BME280;59614;51.012;-1.648;2023-04-19T08:33:23;101486.25;;;10.91;87.13
71109;BME280;59614;51.012;-1.648;2023-04-19T08:35:49;101488.00;;;10.74;87.28
71109;BME280;59614;51.012;-1.648;2023-04-19T08:38:15;101483.53;;;11.24;86.60
71109;BME280;59614;51.012;-1.648;2023-04-19T08:40:45;101484.47;;;10.96;87.13
71109;BME280;59614;51.012;-1.648;2023-04-19T08:43:11;101485.31;;;11.09;86.97
71109;BME280;59614;51.012;-1.648;2023-04-19T08:45:37;101483.59;;;10.90;86.78
71109;BME280;59614;51.012;-1.648;2023-04-19T08:48:03;101489.69;;;11.31;87.28
71109;BME280;59614;51.012;-1.648;2023-04-19T08:50:29;101488.84;;;11.22;87.26
71109;BME280;59614;51.012;-1.648;2023-04-19T08:52:57;101490.53;;;11.43;86.12
71109;BME280;59614;51.012;-1.648;2023-04-19T08:55:23;101491.34;;;11.66;83.27
71109;BME280;59614;51.012;-1.648;2023-04-19T08:57:49;101494.13;;;11.25;85.17
71109;BME280;59614;51.012;-1.648;2023-04-19T09:00:15;101491.31;;;11.78;83.55
71109;BME280;59614;51.012;-1.648;2023-04-19T09:02:50;101493.16;;;11.54;83.70
71109;BME280;59614;51.012;-1.648;2023-04-19T09:05:17;101500.28;;;11.23;86.17
71109;BME280;59614;51.012;-1.648;2023-04-19T09:07:43;101498.41;;;11.61;83.69
71109;BME280;59614;51.012;-1.648;2023-04-19T09:10:11;101489.66;;;11.40;84.10
71109;BME280;59614;51.012;-1.648;2023-04-19T09:12:38;101495.84;;;11.34;85.97
71109;BME280;59614;51.012;-1.648;2023-04-19T09:15:05;101493.84;;;11.94;83.24
71109;BME280;59614;51.012;-1.648;2023-04-19T09:17:34;101488.47;;;12.18;82.19
71109;BME280;59614;51.012;-1.648;2023-04-19T09:20:00;101487.13;;;12.83;79.53
71109;BME280;59614;51.012;-1.648;2023-04-19T09:22:26;101480.53;;;13.26;78.20
71109;BME280;59614;51.012;-1.648;2023-04-19T09:24:52;101480.13;;;13.65;75.29
71109;BME280;59614;51.012;-1.648;2023-04-19T09:27:29;101481.22;;;14.15;74.04
71109;BME280;59614;51.012;-1.648;2023-04-19T09:29:56;101477.13;;;13.15;75.67
71109;BME280;59614;51.012;-1.648;2023-04-19T09:32:23;101477.97;;;13.95;75.27
71109;BME280;59614;51.012;-1.648;2023-04-19T09:34:56;101476.25;;;13.92;75.10
71109;BME280;59614;51.012;-1.648;2023-04-19T09:37:23;101474.38;;;13.21;77.00
71109;BME280;59614;51.012;-1.648;2023-04-19T09:39:49;101476.72;;;13.52;74.32
71109;BME280;59614;51.012;-1.648;2023-04-19T09:42:14;101476.31;;;13.87;72.96
71109;BME280;59614;51.012;-1.648;2023-04-19T09:44:57;101471.44;;;14.77;71.55
71109;BME280;59614;51.012;-1.648;2023-04-19T09:47:25;101457.09;;;14.86;70.01
71109;BME280;59614;51.012;-1.648;2023-04-19T09:52:31;101458.44;;;15.55;68.07
71109;BME280;59614;51.012;-1.648;2023-04-19T09:55:00;101461.69;;;14.77;68.47
71109;BME280;59614;51.012;-1.648;2023-04-19T09:57:26;101462.41;;;13.65;72.66
71109;BME280;59614;51.012;-1.648;2023-04-19T09:59:51;101465.00;;;13.71;72.72
71109;BME280;59614;51.012;-1.648;2023-04-19T10:02:17;101462.69;;;14.11;70.64
71109;BME280;59614;51.012;-1.648;2023-04-19T10:04:44;101454.09;;;13.93;72.21
71109;BME280;59614;51.012;-1.648;2023-04-19T10:07:10;101458.13;;;14.20;71.46
71109;BME280;59614;51.012;-1.648;2023-04-19T10:09:37;101457.56;;;14.56;69.83
71109;BME280;59614;51.012;-1.648;2023-04-19T10:12:04;101439.84;;;14.58;69.60
71109;BME280;59614;51.012;-1.648;2023-04-19T10:14:34;101432.81;;;15.94;65.17
71109;BME280;59614;51.012;-1.648;2023-04-19T10:17:00;101425.69;;;16.33;63.04
71109;BME280;59614;51.012;-1.648;2023-04-19T10:19:27;101425.06;;;16.58;63.49
71109;BME280;59614;51.012;-1.648;2023-04-19T10:21:53;101422.66;;;16.47;63.72
71109;BME280;59614;51.012;-1.648;2023-04-19T10:24:20;101422.81;;;15.19;66.99
71109;BME280;59614;51.012;-1.648;2023-04-19T10:27:07;101429.53;;;15.81;64.86
71109;BME280;59614;51.012;-1.648;2023-04-19T10:30:01;101428.72;;;14.88;65.82
71109;BME280;59614;51.012;-1.648;2023-04-19T10:32:37;101417.72;;;15.94;63.22
71109;BME280;59614;51.012;-1.648;2023-04-19T10:35:16;101403.25;;;16.06;62.88
71109;BME280;59614;51.012;-1.648;2023-04-19T10:38:02;101421.72;;;16.14;61.67
71109;BME280;59614;51.012;-1.648;2023-04-19T10:43:33;101412.44;;;15.50;64.42
71109;BME280;59614;51.012;-1.648;2023-04-19T10:48:57;101409.41;;;16.08;63.54
71109;BME280;59614;51.012;-1.648;2023-04-19T10:53:55;101407.50;;;15.74;63.48
71109;BME280;59614;51.012;-1.648;2023-04-19T11:04:11;101401.03;;;15.00;61.91
71109;BME280;59614;51.012;-1.648;2023-04-19T11:06:56;101394.81;;;15.02;64.06
71109;BME280;59614;51.012;-1.648;2023-04-19T11:09:28;101396.69;;;15.82;63.02
71109;BME280;59614;51.012;-1.648;2023-04-19T11:12:02;101392.41;;;16.14;61.29
71109;BME280;59614;51.012;-1.648;2023-04-19T11:14:56;101397.16;;;16.01;60.09
71109;BME280;59614;51.012;-1.648;2023-04-19T11:17:26;101395.78;;;15.42;63.49
71109;BME280;59614;51.012;-1.648;2023-04-19T11:27:35;101392.91;;;15.51;60.45
71109;BME280;59614;51.012;-1.648;2023-04-19T11:30:14;101384.41;;;15.76;61.85
71109;BME280;59614;51.012;-1.648;2023-04-19T11:32:55;101381.59;;;16.56;59.12
71109;BME280;59614;51.012;-1.648;2023-04-19T11:35:22;101367.41;;;16.89;58.66
71109;BME280;59614;51.012;-1.648;2023-04-19T11:37:48;101377.78;;;16.32;59.76
71109;BME280;59614;51.012;-1.648;2023-04-19T11:40:15;101371.84;;;16.19;58.10
71109;BME280;59614;51.012;-1.648;2023-04-19T11:42:41;101369.47;;;16.08;57.73
71109;BME280;59614;51.012;-1.648;2023-04-19T11:45:09;101369.91;;;16.26;58.38
71109;BME280;59614;51.012;-1.648;2023-04-19T11:47:35;101376.63;;;16.42;57.98
71109;BME280;59614;51.012;-1.648;2023-04-19T11:50:30;101377.22;;;16.54;57.11
71109;BME280;59614;51.012;-1.648;2023-04-19T11:52:56;101367.31;;;16.59;57.83
71109;BME280;59614;51.012;-1.648;2023-04-19T11:55:22;101372.28;;;17.67;55.96
71109;BME280;59614;51.012;-1.648;2023-04-19T11:57:47;101371.19;;;16.45;57.58
71109;BME280;59614;51.012;-1.648;2023-04-19T12:00:13;101372.63;;;15.46;59.87
71109;BME280;59614;51.012;-1.648;2023-04-19T12:02:41;101359.69;;;15.69;60.13
71109;BME280;59614;51.012;-1.648;2023-04-19T12:05:11;101363.66;;;15.50;58.97
71109;BME280;59614;51.012;-1.648;2023-04-19T12:07:59;101367.63;;;16.10;57.95
71109;BME280;59614;51.012;-1.648;2023-04-19T12:10:25;101369.78;;;15.96;58.66
71109;BME280;59614;51.012;-1.648;2023-04-19T12:12:50;101364.50;;;16.63;57.61
71109;BME280;59614;51.012;-1.648;2023-04-19T12:15:16;101363.72;;;16.60;57.62
71109;BME280;59614;51.012;-1.648;2023-04-19T12:17:57;101368.44;;;16.14;59.14
71109;BME280;59614;51.012;-1.648;2023-04-19T12:20:34;101364.16;;;17.40;54.93
71109;BME280;59614;51.012;-1.648;2023-04-19T12:22:59;101363.66;;;15.90;57.78
71109;BME280;59614;51.012;-1.648;2023-04-19T12:25:32;101366.63;;;15.77;58.76
71109;BME280;59614;51.012;-1.648;2023-04-19T12:27:59;101363.53;;;15.97;59.76
71109;BME280;59614;51.012;-1.648;2023-04-19T12:30:25;101359.56;;;16.82;57.24
71109;BME280;59614;51.012;-1.648;2023-04-19T12:32:51;101353.88;;;16.27;56.97
71109;BME280;59614;51.012;-1.648;2023-04-19T12:35:25;101371.59;;;17.59;53.86
71109;BME280;59614;51.012;-1.648;2023-04-19T12:37:52;101368.31;;;17.51;52.77
71109;BME280;59614;51.012;-1.648;2023-04-19T12:40:18;101357.59;;;18.09;52.20
71109;BME280;59614;51.012;-1.648;2023-04-19T12:42:44;101358.25;;;17.89;52.23
71109;BME280;59614;51.012;-1.648;2023-04-19T12:45:10;101358.88;;;17.39;54.21
71109;BME280;59614;51.012;-1.648;2023-04-19T12:47:36;101361.22;;;17.20;55.78
71109;BME280;59614;51.012;-1.648;2023-04-19T12:50:02;101358.34;;;17.26;55.50
71109;BME280;59614;51.012;-1.648;2023-04-19T12:52:27;101354.13;;;17.49;54.57
71109;BME280;59614;51.012;-1.648;2023-04-19T12:54:53;101357.31;;;17.62;54.41
71109;BME280;59614;51.012;-1.648;2023-04-19T12:57:18;101343.06;;;18.45;53.66
71109;BME280;59614;51.012;-1.648;2023-04-19T12:59:43;101342.88;;;17.96;52.73
71109;BME280;59614;51.012;-1.648;2023-04-19T13:02:09;101350.94;;;17.66;54.07
71109;BME280;59614;51.012;-1.648;2023-04-19T13:04:35;101353.31;;;16.50;56.73
71109;BME280;59614;51.012;-1.648;2023-04-19T13:07:00;101346.78;;;16.28;57.59